Saga Sapphire — 9HOF8 — position and weather

sailwx.info

Track history (hours):
 
Tides and Currents Weather Stations Pressure Air Temp Water Temp Dewpoint Dewpoint Depression Visibility Wind Speed Wind Dir Waves Ship Positions

Saga Sapphire

Last reported at 2019-Sep-21 02:00 UTC. Time now 2019-Sep-21 11:13 UTC.
Position N 42°48' W 009°18'.

Length 200 m; draft 8.5 m.

Type: Passenger vessel. MMSI: 256208000.

Wind from 130 at 25 knots

Barometer 1006.4 mb
Air temperature 16.6 ° C
Visibility: greater than 5.4 NM
Dewpoint 15.2 ° C
Water temperature 17.0 ° C

Date/timePositionNaut miles runAvg speedWind from/ knotsBaromVisibWave heightAir tempDewpointWater temp
2019-Sep-21 02:00N 42°48' W 009°18'32611.6 130 / 251006.4 5.4 16.615.217.0
2019-Sep-19 21:58N 47°04' W 004°32'1313.0
2019-Sep-19 20:57N 47°13' W 004°18'613.1
2019-Sep-19 20:28N 47°17' W 004°11'716.0
2019-Sep-19 20:00N 47°18' W 004°00'528.8 040 / 221022.710.8 18.511.819.0
2019-Sep-19 19:48N 47°23' W 004°03'413.2
2019-Sep-19 19:30N 47°26' W 003°58'712.6
2019-Sep-19 18:54N 47°31' W 003°51'512.8
2019-Sep-19 18:29N 47°35' W 003°45'612.2
2019-Sep-19 18:00N 47°39' W 003°38'611.4
2019-Sep-19 17:30N 47°40' W 003°30'4 8.7
2019-Sep-19 17:00N 47°41' W 003°24'3 6.7
2019-Sep-19 16:30N 47°44' W 003°21'0 0.2
2019-Sep-19 15:59N 47°44' W 003°21'0 0.0
2019-Sep-19 15:20N 47°44' W 003°21'0 0.0
2019-Sep-19 14:47N 47°44' W 003°21'0 0.0
2019-Sep-19 14:16N 47°44' W 003°21'0 0.0
2019-Sep-19 13:56N 47°44' W 003°21'0 0.0
2019-Sep-19 13:17N 47°44' W 003°21'0 0.0
2019-Sep-19 12:53N 47°44' W 003°21'0 0.0
2019-Sep-19 12:22N 47°44' W 003°21'0 0.0
2019-Sep-19 11:49N 47°44' W 003°21'0 0.0
2019-Sep-19 10:42N 47°44' W 003°21'0 0.0
2019-Sep-19 09:14N 47°44' W 003°21'0 0.0
2019-Sep-19 08:56N 47°44' W 003°21'0 0.0
2019-Sep-19 08:26N 47°44' W 003°21'0 0.0
2019-Sep-19 07:40N 47°44' W 003°21'0 0.0
2019-Sep-19 07:09N 47°44' W 003°21'0 0.0
2019-Sep-19 06:55N 47°44' W 003°21'0 0.0
2019-Sep-19 06:30N 47°44' W 003°21'2 4.8
2019-Sep-19 06:00N 47°42' W 003°22'4 8.1
2019-Sep-19 05:30N 47°40' W 003°28'5 9.0
2019-Sep-19 05:00N 47°40' W 003°35'611.5
2019-Sep-19 04:30N 47°39' W 003°43'611.7
2019-Sep-19 04:00N 47°37' W 003°51'611.7
2019-Sep-19 03:30N 47°36' W 003°59'912.6
2019-Sep-19 02:50N 47°36' W 004°12'514.0
2019-Sep-19 02:30N 47°38' W 004°18'713.8
2019-Sep-19 02:00N 47°42' W 004°26'714.1
2019-Sep-19 01:30N 47°45' W 004°36'714.1
2019-Sep-19 01:01N 47°49' W 004°45'2115.6
2019-Sep-19 01:00N 47°48' W 004°42'918.4 040 / 281025.710.8 14.510.120.0
2019-Sep-19 00:30N 47°53' W 004°53'713.8
2019-Sep-19 00:00N 47°56' W 005°02'613.0
2019-Sep-18 23:30N 48°00' W 005°10'713.8
2019-Sep-18 23:01N 48°06' W 005°15'714.3
2019-Sep-18 22:30N 48°13' W 005°19'714.7
2019-Sep-18 22:00N 48°20' W 005°22'714.9
2019-Sep-18 21:30N 48°27' W 005°24'612.9
2019-Sep-18 21:00N 48°33' W 005°21'713.9
2019-Sep-18 20:30N 48°39' W 005°14'713.3
2019-Sep-18 20:00N 48°43' W 005°06'612.7
2019-Sep-18 19:30N 48°47' W 004°59'611.1
2019-Sep-18 19:00N 48°51' W 004°53'2110.9
2019-Sep-18 17:03N 49°04' W 004°27'211.4
2019-Sep-18 16:55N 49°05' W 004°26'511.7
2019-Sep-18 16:30N 49°08' W 004°20'1112.3
2019-Sep-18 15:36N 49°16' W 004°07'1412.3
2019-Sep-18 14:26N 49°27' W 003°54'1812.4
2019-Sep-18 13:00N 49°39' W 003°33'612.1
2019-Sep-18 12:29N 49°43' W 003°26'611.7
2019-Sep-18 12:00N 49°46' W 003°19'711.2
2019-Sep-18 11:23N 49°50' W 003°10'410.7
2019-Sep-18 11:00N 49°53' W 003°05'510.2
2019-Sep-18 10:30N 49°56' W 002°60'5 9.8
2019-Sep-18 10:00N 49°59' W 002°53'6 9.5
2019-Sep-18 09:24N 50°01' W 002°45'7 9.5
2019-Sep-18 08:42N 50°04' W 002°35'2310.4
2019-Sep-18 06:29N 50°10' W 002°01'510.3
2019-Sep-18 05:59N 50°12' W 001°53'510.8
2019-Sep-18 05:30N 50°13' W 001°45'611.3
2019-Sep-18 04:59N 50°15' W 001°36'611.8
2019-Sep-18 04:28N 50°16' W 001°27'3510.9
2019-Sep-18 01:13N 50°26' W 000°34'10 8.4
2019-Sep-18 00:00N 50°24' W 000°18'26 7.7 060 / 141027.410.8 15.0 8.019.0
2019-Sep-17 20:40N 50°35' E 000°18'1 8.8
2019-Sep-17 20:30N 50°36' E 000°21'5 9.3
2019-Sep-17 20:00N 50°37' E 000°28'5 9.8
2019-Sep-17 19:30N 50°38' E 000°35'510.4
2019-Sep-17 19:00N 50°41' E 000°42'612.7
2019-Sep-17 18:30N 50°45' E 000°50'612.6
2019-Sep-17 18:00N 50°48' E 000°59'612.5
2019-Sep-17 17:30N 50°52' E 001°06'612.1
2019-Sep-17 17:00N 50°56' E 001°13'611.4
2019-Sep-17 16:30N 51°01' E 001°19'510.7
2019-Sep-17 16:01N 51°06' E 001°21'1 0.0
2019-Sep-16 07:04N 51°07' E 001°19'0 0.6
2019-Sep-16 06:58N 51°07' E 001°19'2 4.9
2019-Sep-16 06:29N 51°08' E 001°23'4 7.6
2019-Sep-16 06:00N 51°07' E 001°28'611.6
2019-Sep-16 05:30N 51°09' E 001°37'713.3
2019-Sep-16 05:00N 51°13' E 001°46'713.7
2019-Sep-16 04:31N 51°19' E 001°50'713.6
2019-Sep-16 04:00N 51°26' E 001°54'713.4
2019-Sep-16 03:30N 51°31' E 002°01'713.2
2019-Sep-16 03:00N 51°35' E 002°09'713.1
2019-Sep-16 02:30N 51°40' E 002°16'612.7
2019-Sep-16 02:00N 51°45' E 002°23'611.8
2019-Sep-16 01:30N 51°49' E 002°30'712.2
2019-Sep-16 00:56N 51°55' E 002°35'812.3
2019-Sep-16 00:18N 52°03' E 002°36'612.9
2019-Sep-15 23:50N 52°09' E 002°37'513.4
2019-Sep-15 23:29N 52°13' E 002°37'713.7
2019-Sep-15 23:00N 52°20' E 002°38'713.8
2019-Sep-15 22:30N 52°27' E 002°38'713.9
2019-Sep-15 22:00N 52°34' E 002°37'714.3
2019-Sep-15 21:29N 52°41' E 002°38'814.3
2019-Sep-15 20:55N 52°49' E 002°38'613.9
2019-Sep-15 20:29N 52°56' E 002°38'813.5
2019-Sep-15 19:55N 53°03' E 002°38'1912.3
2019-Sep-15 18:23N 53°21' E 002°48'511.9
2019-Sep-15 17:59N 53°26' E 002°51'711.7
2019-Sep-15 17:26N 53°32' E 002°55'20315.0
2019-Sep-15 03:54N 56°46' E 004°41'716.4
2019-Sep-15 03:29N 56°52' E 004°42'1816.3
2019-Sep-15 02:23N 57°10' E 004°47'1116.3
2019-Sep-15 01:43N 57°21' E 004°51'416.6
2019-Sep-15 01:28N 57°25' E 004°52'816.1
2019-Sep-15 01:00N 57°32' E 004°54'816.2
2019-Sep-15 00:30N 57°40' E 004°57'816.4
2019-Sep-15 00:00N 57°48' E 004°59'816.5
2019-Sep-14 23:30N 57°57' E 004°59'816.4
2019-Sep-14 23:00N 58°05' E 004°59'816.0
2019-Sep-14 22:30N 58°13' E 004°58'714.8
2019-Sep-14 22:00N 58°20' E 005°02'2539.3
2019-Sep-14 22:00N 58°18' E 005°00'1019.2 210 / 491008.8 12.512.116.0
2019-Sep-14 21:30N 58°27' E 005°08'714.6
2019-Sep-14 21:00N 58°33' E 005°11'815.1
2019-Sep-14 20:30N 58°41' E 005°12'815.1
2019-Sep-14 20:00N 58°48' E 005°14'815.2
2019-Sep-14 19:30N 58°56' E 005°18'714.9
2019-Sep-14 19:00N 59°03' E 005°19'510.9
2019-Sep-14 18:30N 59°07' E 005°26'3 6.5
2019-Sep-14 18:00N 59°10' E 005°30'4 8.5
2019-Sep-14 17:30N 59°09' E 005°38'4 8.0
2019-Sep-14 17:00N 59°08' E 005°46'4 8.0
2019-Sep-14 16:30N 59°05' E 005°51'3 7.0
2019-Sep-14 16:00N 59°02' E 005°47'4 7.1
2019-Sep-14 15:30N 58°60' E 005°42'1 2.7
2019-Sep-14 14:58N 58°59' E 005°43'0 0.0
2019-Sep-14 14:28N 58°59' E 005°43'0 0.0
2019-Sep-14 13:58N 58°59' E 005°43'0 0.0
2019-Sep-14 13:28N 58°59' E 005°43'0 0.0
2019-Sep-14 12:58N 58°59' E 005°43'0 0.0
2019-Sep-14 12:28N 58°59' E 005°43'0 0.0
2019-Sep-14 11:58N 58°59' E 005°43'0 0.0
2019-Sep-14 11:28N 58°59' E 005°43'0 0.0
2019-Sep-14 10:58N 58°59' E 005°43'0 0.0
2019-Sep-14 10:28N 58°59' E 005°43'0 0.0
2019-Sep-14 09:58N 58°59' E 005°43'0 0.0
2019-Sep-14 09:27N 58°59' E 005°43'0 0.0
2019-Sep-14 08:58N 58°59' E 005°43'0 0.0
2019-Sep-14 08:28N 58°59' E 005°43'0 0.0
2019-Sep-14 07:58N 58°59' E 005°43'0 0.0
2019-Sep-14 07:28N 58°59' E 005°43'0 0.0
2019-Sep-14 06:58N 58°59' E 005°43'0 0.0
2019-Sep-14 06:28N 58°59' E 005°43'0 0.0
2019-Sep-14 05:58N 58°59' E 005°43'0 0.0
2019-Sep-14 05:28N 58°59' E 005°43'0 0.0
2019-Sep-14 04:58N 58°59' E 005°43'0 0.0
2019-Sep-14 04:28N 58°59' E 005°43'0 0.0
2019-Sep-14 03:58N 58°59' E 005°43'0 0.0
2019-Sep-14 03:28N 58°59' E 005°43'0 0.0
2019-Sep-14 02:58N 58°59' E 005°43'0 0.0
2019-Sep-14 02:28N 58°59' E 005°43'0 0.0
2019-Sep-14 01:58N 58°59' E 005°43'0 0.0
2019-Sep-14 01:28N 58°59' E 005°43'0 0.0
2019-Sep-14 00:58N 58°59' E 005°43'0 0.0
2019-Sep-14 00:28N 58°59' E 005°43'0 0.0
2019-Sep-13 23:58N 58°59' E 005°43'0 0.0
2019-Sep-13 23:28N 58°59' E 005°43'0 0.0
2019-Sep-13 22:58N 58°59' E 005°43'0 0.0
2019-Sep-13 22:28N 58°59' E 005°43'0 0.0
2019-Sep-13 21:58N 58°59' E 005°43'0 0.0
2019-Sep-13 21:28N 58°59' E 005°43'0 0.0
2019-Sep-13 20:58N 58°59' E 005°43'0 0.0
2019-Sep-13 20:28N 58°59' E 005°43'0 0.0
2019-Sep-13 19:58N 58°59' E 005°43'0 0.0
2019-Sep-13 19:25N 58°59' E 005°43'0 0.0
2019-Sep-13 18:58N 58°59' E 005°43'0 0.0
2019-Sep-13 18:28N 58°59' E 005°43'0 0.0
2019-Sep-13 17:58N 58°59' E 005°43'0 0.0
2019-Sep-13 17:30N 58°59' E 005°43'0 0.0
2019-Sep-13 17:00N 58°59' E 005°43'0 0.0
2019-Sep-13 16:30N 58°59' E 005°43'0 0.0
2019-Sep-13 16:00N 58°59' E 005°43'0 0.0
2019-Sep-13 15:30N 58°59' E 005°43'0 0.0
2019-Sep-13 15:00N 58°59' E 005°43'0 0.0
2019-Sep-13 14:30N 58°59' E 005°43'0 0.0
2019-Sep-13 14:00N 58°59' E 005°43'0 0.0
2019-Sep-13 13:30N 58°59' E 005°43'0 0.0
2019-Sep-13 13:00N 58°59' E 005°43'0 0.0
2019-Sep-13 12:30N 58°59' E 005°43'0 0.0
2019-Sep-13 12:00N 58°59' E 005°43'2 3.9
2019-Sep-13 11:31N 59°00' E 005°41'3 7.0
2019-Sep-13 11:00N 59°02' E 005°36'3 5.4
2019-Sep-13 10:30N 59°04' E 005°33'4 8.0
2019-Sep-13 10:00N 59°08' E 005°33'2 4.6
2019-Sep-13 09:30N 59°10' E 005°35'4 7.5
2019-Sep-13 09:00N 59°08' E 005°29'4 7.7
2019-Sep-13 08:30N 59°05' E 005°24'510.3
2019-Sep-13 08:00N 59°03' E 005°15'510.2
2019-Sep-13 07:30N 59°03' E 005°05'510.9
2019-Sep-13 07:00N 59°05' E 004°55'612.4
2019-Sep-13 06:30N 59°09' E 004°45'612.3
2019-Sep-13 06:00N 59°12' E 004°35'612.2
2019-Sep-13 05:30N 59°15' E 004°25'612.5
2019-Sep-13 05:00N 59°18' E 004°14'612.7
2019-Sep-13 04:30N 59°22' E 004°03'613.0
2019-Sep-13 04:00N 59°28' E 004°02'713.6
2019-Sep-13 03:30N 59°35' E 004°03'713.3
2019-Sep-13 03:00N 59°41' E 004°03'713.3
2019-Sep-13 02:30N 59°48' E 004°03'1313.4
2019-Sep-13 01:30N 60°01' E 004°03'714.5
2019-Sep-13 01:00N 60°09' E 004°02'714.2
2019-Sep-13 00:30N 60°16' E 004°01'714.4
2019-Sep-13 00:00N 60°23' E 003°58'714.6
2019-Sep-12 23:30N 60°29' E 003°50'714.3
2019-Sep-12 23:00N 60°35' E 003°41'714.4
2019-Sep-12 22:30N 60°40' E 003°31'714.7
2019-Sep-12 22:00N 60°46' E 003°23'714.9
2019-Sep-12 21:30N 60°52' E 003°15'715.2
2019-Sep-12 21:00N 60°59' E 003°07'815.1
2019-Sep-12 20:30N 61°05' E 002°58'713.5
2019-Sep-12 19:59N 61°11' E 003°04'713.7
2019-Sep-12 19:30N 61°17' E 003°13'713.6
2019-Sep-12 19:00N 61°22' E 003°22'713.7
2019-Sep-12 18:30N 61°27' E 003°31'713.1
2019-Sep-12 18:00N 61°32' E 003°40'612.9
2019-Sep-12 17:30N 61°37' E 003°49'713.0
2019-Sep-12 17:00N 61°42' E 003°57'611.4
2019-Sep-12 16:30N 61°47' E 004°02'612.7
2019-Sep-12 16:00N 61°54' E 004°02'713.7
2019-Sep-12 15:30N 62°01' E 004°03'713.3
2019-Sep-12 15:00N 62°06' E 004°12'612.7
2019-Sep-12 14:30N 62°11' E 004°20'713.6
2019-Sep-12 14:00N 62°16' E 004°30'713.3
2019-Sep-12 13:30N 62°20' E 004°40'713.4
2019-Sep-12 13:00N 62°26' E 004°49'612.7
2019-Sep-12 12:29N 62°31' E 004°58'612.5
2019-Sep-12 12:00N 62°35' E 005°06'612.1
2019-Sep-12 11:30N 62°40' E 005°16'612.1
2019-Sep-12 11:00N 62°43' E 005°27'611.9
2019-Sep-12 10:30N 62°46' E 005°37'713.0
2019-Sep-12 10:00N 62°50' E 005°50'714.0
2019-Sep-12 09:30N 62°53' E 006°03'612.1
2019-Sep-12 09:00N 62°57' E 006°14'612.8
2019-Sep-12 08:30N 62°60' E 006°26'713.3
2019-Sep-12 08:00N 63°04' E 006°38'713.5
2019-Sep-12 07:30N 63°07' E 006°51'714.0
2019-Sep-12 07:00N 63°10' E 007°05'713.6
2019-Sep-12 06:30N 63°13' E 007°19'612.7
2019-Sep-12 06:00N 63°16' E 007°31'611.4
2019-Sep-12 05:30N 63°14' E 007°43'3 5.7
2019-Sep-12 05:00N 63°13' E 007°49'4 7.4
2019-Sep-12 04:30N 63°10' E 007°44'2 4.9
2019-Sep-12 04:00N 63°12' E 007°48'2 4.8
2019-Sep-12 03:30N 63°14' E 007°44'510.0
2019-Sep-12 03:00N 63°16' E 007°35'611.0
2019-Sep-12 02:30N 63°22' E 007°32'612.5
2019-Sep-12 02:00N 63°28' E 007°29'611.5
2019-Sep-12 01:29N 63°33' E 007°33'511.3
2019-Sep-12 01:00N 63°38' E 007°39'611.9
2019-Sep-12 00:30N 63°44' E 007°44'611.0
2019-Sep-12 00:00N 63°48' E 007°51'510.8
2019-Sep-11 23:30N 63°53' E 007°57'510.7
2019-Sep-11 23:00N 63°58' E 008°03'611.4
2019-Sep-11 22:30N 64°03' E 008°09'611.2
2019-Sep-11 22:00N 64°08' E 008°15'611.5
2019-Sep-11 21:30N 64°13' E 008°21'612.1
2019-Sep-11 21:00N 64°18' E 008°28'612.4
2019-Sep-11 20:30N 64°23' E 008°35'612.1
2019-Sep-11 20:00N 64°29' E 008°42'612.0
2019-Sep-11 19:29N 64°34' E 008°49'611.8
2019-Sep-11 19:00N 64°39' E 008°55'612.2
2019-Sep-11 18:30N 64°45' E 009°00'612.3
2019-Sep-11 18:00N 64°50' E 009°07'611.7
2019-Sep-11 17:30N 64°55' E 009°14'610.9
2019-Sep-11 17:00N 65°00' E 009°20'511.2
2019-Sep-11 16:30N 65°05' E 009°26'611.4
2019-Sep-11 16:00N 65°10' E 009°32'611.5
2019-Sep-11 15:30N 65°15' E 009°39'611.6
2019-Sep-11 15:00N 65°20' E 009°46'611.4
2019-Sep-11 14:29N 65°25' E 009°53'611.5
2019-Sep-11 14:00N 65°30' E 009°60'611.4
2019-Sep-11 13:31N 65°35' E 010°07'611.4
2019-Sep-11 13:00N 65°40' E 010°13'611.6
2019-Sep-11 12:30N 65°45' E 010°19'611.5
2019-Sep-11 12:00N 65°51' E 010°25'611.4
2019-Sep-11 11:30N 65°56' E 010°31'611.4
2019-Sep-11 11:00N 66°01' E 010°36'611.3
2019-Sep-11 10:30N 66°06' E 010°43'611.1
2019-Sep-11 10:00N 66°11' E 010°46'611.1
2019-Sep-11 09:29N 66°17' E 010°49'511.2
2019-Sep-11 09:00N 66°21' E 010°59'611.9
2019-Sep-11 08:30N 66°25' E 011°08'511.0
2019-Sep-11 08:01N 66°30' E 011°16'510.9
2019-Sep-11 07:30N 66°34' E 011°23'611.0
2019-Sep-11 07:00N 66°39' E 011°29'611.1
2019-Sep-11 06:30N 66°44' E 011°36'611.1
2019-Sep-11 06:00N 66°49' E 011°43'610.8
2019-Sep-11 05:30N 66°54' E 011°51'510.6
2019-Sep-11 05:00N 66°57' E 011°60'611.0
2019-Sep-11 04:30N 67°02' E 012°09'611.1
2019-Sep-11 04:00N 67°06' E 012°19'138.0
2019-Sep-11 04:00N 67°06' E 012°18'510.9 150 / 251002.110.8 14.711.511.0
2019-Sep-11 03:30N 67°10' E 012°28'510.8
2019-Sep-11 03:00N 67°14' E 012°37'510.8
2019-Sep-11 02:30N 67°18' E 012°46'510.8
2019-Sep-11 02:00N 67°22' E 012°55'  
Track history (hours):
 
Tides and Currents Weather Stations Pressure Air Temp Water Temp Dewpoint Dewpoint Depression Visibility Wind Speed Wind Dir Waves Ship Positions

Saga Sapphire

Last reported at 2019-Sep-21 02:00 UTC. Time now 2019-Sep-21 11:13 UTC.
Position N 42°48' W 009°18'.

Length 200 m; draft 8.5 m.

Type: Passenger vessel. MMSI: 256208000.

Wind from 130 at 25 knots

Barometer 1006.4 mb
Air temperature 16.6 ° C
Visibility: greater than 5.4 NM
Dewpoint 15.2 ° C
Water temperature 17.0 ° C

Date/timePositionNaut miles runAvg speedWind from/ knotsBaromVisibWave heightAir tempDewpointWater temp
2019-Sep-21 02:00N 42°48' W 009°18'32611.6 130 / 251006.4 5.4 16.615.217.0
2019-Sep-19 21:58N 47°04' W 004°32'1313.0
2019-Sep-19 20:57N 47°13' W 004°18'613.1
2019-Sep-19 20:28N 47°17' W 004°11'716.0
2019-Sep-19 20:00N 47°18' W 004°00'528.8 040 / 221022.710.8 18.511.819.0
2019-Sep-19 19:48N 47°23' W 004°03'413.2
2019-Sep-19 19:30N 47°26' W 003°58'712.6
2019-Sep-19 18:54N 47°31' W 003°51'512.8
2019-Sep-19 18:29N 47°35' W 003°45'612.2
2019-Sep-19 18:00N 47°39' W 003°38'611.4
2019-Sep-19 17:30N 47°40' W 003°30'4 8.7
2019-Sep-19 17:00N 47°41' W 003°24'3 6.7
2019-Sep-19 16:30N 47°44' W 003°21'0 0.2
2019-Sep-19 15:59N 47°44' W 003°21'0 0.0
2019-Sep-19 15:20N 47°44' W 003°21'0 0.0
2019-Sep-19 14:47N 47°44' W 003°21'0 0.0
2019-Sep-19 14:16N 47°44' W 003°21'0 0.0
2019-Sep-19 13:56N 47°44' W 003°21'0 0.0
2019-Sep-19 13:17N 47°44' W 003°21'0 0.0
2019-Sep-19 12:53N 47°44' W 003°21'0 0.0
2019-Sep-19 12:22N 47°44' W 003°21'0 0.0
2019-Sep-19 11:49N 47°44' W 003°21'0 0.0
2019-Sep-19 10:42N 47°44' W 003°21'0 0.0
2019-Sep-19 09:14N 47°44' W 003°21'0 0.0
2019-Sep-19 08:56N 47°44' W 003°21'0 0.0
2019-Sep-19 08:26N 47°44' W 003°21'0 0.0
2019-Sep-19 07:40N 47°44' W 003°21'0 0.0
2019-Sep-19 07:09N 47°44' W 003°21'0 0.0
2019-Sep-19 06:55N 47°44' W 003°21'0 0.0
2019-Sep-19 06:30N 47°44' W 003°21'2 4.8
2019-Sep-19 06:00N 47°42' W 003°22'4 8.1
2019-Sep-19 05:30N 47°40' W 003°28'5 9.0
2019-Sep-19 05:00N 47°40' W 003°35'611.5
2019-Sep-19 04:30N 47°39' W 003°43'611.7
2019-Sep-19 04:00N 47°37' W 003°51'611.7
2019-Sep-19 03:30N 47°36' W 003°59'912.6
2019-Sep-19 02:50N 47°36' W 004°12'514.0
2019-Sep-19 02:30N 47°38' W 004°18'713.8
2019-Sep-19 02:00N 47°42' W 004°26'714.1
2019-Sep-19 01:30N 47°45' W 004°36'714.1
2019-Sep-19 01:01N 47°49' W 004°45'2115.6
2019-Sep-19 01:00N 47°48' W 004°42'918.4 040 / 281025.710.8 14.510.120.0
2019-Sep-19 00:30N 47°53' W 004°53'713.8
2019-Sep-19 00:00N 47°56' W 005°02'613.0
2019-Sep-18 23:30N 48°00' W 005°10'713.8
2019-Sep-18 23:01N 48°06' W 005°15'714.3
2019-Sep-18 22:30N 48°13' W 005°19'714.7
2019-Sep-18 22:00N 48°20' W 005°22'714.9
2019-Sep-18 21:30N 48°27' W 005°24'612.9
2019-Sep-18 21:00N 48°33' W 005°21'713.9
2019-Sep-18 20:30N 48°39' W 005°14'713.3
2019-Sep-18 20:00N 48°43' W 005°06'612.7
2019-Sep-18 19:30N 48°47' W 004°59'611.1
2019-Sep-18 19:00N 48°51' W 004°53'2110.9
2019-Sep-18 17:03N 49°04' W 004°27'211.4
2019-Sep-18 16:55N 49°05' W 004°26'511.7
2019-Sep-18 16:30N 49°08' W 004°20'1112.3
2019-Sep-18 15:36N 49°16' W 004°07'1412.3
2019-Sep-18 14:26N 49°27' W 003°54'1812.4
2019-Sep-18 13:00N 49°39' W 003°33'612.1
2019-Sep-18 12:29N 49°43' W 003°26'611.7
2019-Sep-18 12:00N 49°46' W 003°19'711.2
2019-Sep-18 11:23N 49°50' W 003°10'410.7
2019-Sep-18 11:00N 49°53' W 003°05'510.2
2019-Sep-18 10:30N 49°56' W 002°60'5 9.8
2019-Sep-18 10:00N 49°59' W 002°53'6 9.5
2019-Sep-18 09:24N 50°01' W 002°45'7 9.5
2019-Sep-18 08:42N 50°04' W 002°35'2310.4
2019-Sep-18 06:29N 50°10' W 002°01'510.3
2019-Sep-18 05:59N 50°12' W 001°53'510.8
2019-Sep-18 05:30N 50°13' W 001°45'611.3
2019-Sep-18 04:59N 50°15' W 001°36'611.8
2019-Sep-18 04:28N 50°16' W 001°27'3510.9
2019-Sep-18 01:13N 50°26' W 000°34'10 8.4
2019-Sep-18 00:00N 50°24' W 000°18'26 7.7 060 / 141027.410.8 15.0 8.019.0
2019-Sep-17 20:40N 50°35' E 000°18'1 8.8
2019-Sep-17 20:30N 50°36' E 000°21'5 9.3
2019-Sep-17 20:00N 50°37' E 000°28'5 9.8
2019-Sep-17 19:30N 50°38' E 000°35'510.4
2019-Sep-17 19:00N 50°41' E 000°42'612.7
2019-Sep-17 18:30N 50°45' E 000°50'612.6
2019-Sep-17 18:00N 50°48' E 000°59'612.5
2019-Sep-17 17:30N 50°52' E 001°06'612.1
2019-Sep-17 17:00N 50°56' E 001°13'611.4
2019-Sep-17 16:30N 51°01' E 001°19'510.7
2019-Sep-17 16:01N 51°06' E 001°21'1 0.0
2019-Sep-16 07:04N 51°07' E 001°19'0 0.6
2019-Sep-16 06:58N 51°07' E 001°19'2 4.9
2019-Sep-16 06:29N 51°08' E 001°23'4 7.6
2019-Sep-16 06:00N 51°07' E 001°28'611.6
2019-Sep-16 05:30N 51°09' E 001°37'713.3
2019-Sep-16 05:00N 51°13' E 001°46'713.7
2019-Sep-16 04:31N 51°19' E 001°50'713.6
2019-Sep-16 04:00N 51°26' E 001°54'713.4
2019-Sep-16 03:30N 51°31' E 002°01'713.2
2019-Sep-16 03:00N 51°35' E 002°09'713.1
2019-Sep-16 02:30N 51°40' E 002°16'612.7
2019-Sep-16 02:00N 51°45' E 002°23'611.8
2019-Sep-16 01:30N 51°49' E 002°30'712.2
2019-Sep-16 00:56N 51°55' E 002°35'812.3
2019-Sep-16 00:18N 52°03' E 002°36'612.9
2019-Sep-15 23:50N 52°09' E 002°37'513.4
2019-Sep-15 23:29N 52°13' E 002°37'713.7
2019-Sep-15 23:00N 52°20' E 002°38'713.8
2019-Sep-15 22:30N 52°27' E 002°38'713.9
2019-Sep-15 22:00N 52°34' E 002°37'714.3
2019-Sep-15 21:29N 52°41' E 002°38'814.3
2019-Sep-15 20:55N 52°49' E 002°38'613.9
2019-Sep-15 20:29N 52°56' E 002°38'813.5
2019-Sep-15 19:55N 53°03' E 002°38'1912.3
2019-Sep-15 18:23N 53°21' E 002°48'511.9
2019-Sep-15 17:59N 53°26' E 002°51'711.7
2019-Sep-15 17:26N 53°32' E 002°55'20315.0
2019-Sep-15 03:54N 56°46' E 004°41'716.4
2019-Sep-15 03:29N 56°52' E 004°42'1816.3
2019-Sep-15 02:23N 57°10' E 004°47'1116.3
2019-Sep-15 01:43N 57°21' E 004°51'416.6
2019-Sep-15 01:28N 57°25' E 004°52'816.1
2019-Sep-15 01:00N 57°32' E 004°54'816.2
2019-Sep-15 00:30N 57°40' E 004°57'816.4
2019-Sep-15 00:00N 57°48' E 004°59'816.5
2019-Sep-14 23:30N 57°57' E 004°59'816.4
2019-Sep-14 23:00N 58°05' E 004°59'816.0
2019-Sep-14 22:30N 58°13' E 004°58'714.8
2019-Sep-14 22:00N 58°20' E 005°02'2539.3
2019-Sep-14 22:00N 58°18' E 005°00'1019.2 210 / 491008.8 12.512.116.0
2019-Sep-14 21:30N 58°27' E 005°08'714.6
2019-Sep-14 21:00N 58°33' E 005°11'815.1
2019-Sep-14 20:30N 58°41' E 005°12'815.1
2019-Sep-14 20:00N 58°48' E 005°14'815.2
2019-Sep-14 19:30N 58°56' E 005°18'714.9
2019-Sep-14 19:00N 59°03' E 005°19'510.9
2019-Sep-14 18:30N 59°07' E 005°26'3 6.5
2019-Sep-14 18:00N 59°10' E 005°30'4 8.5
2019-Sep-14 17:30N 59°09' E 005°38'4 8.0
2019-Sep-14 17:00N 59°08' E 005°46'4 8.0
2019-Sep-14 16:30N 59°05' E 005°51'3 7.0
2019-Sep-14 16:00N 59°02' E 005°47'4 7.1
2019-Sep-14 15:30N 58°60' E 005°42'1 2.7
2019-Sep-14 14:58N 58°59' E 005°43'0 0.0
2019-Sep-14 14:28N 58°59' E 005°43'0 0.0
2019-Sep-14 13:58N 58°59' E 005°43'0 0.0
2019-Sep-14 13:28N 58°59' E 005°43'0 0.0
2019-Sep-14 12:58N 58°59' E 005°43'0 0.0
2019-Sep-14 12:28N 58°59' E 005°43'0 0.0
2019-Sep-14 11:58N 58°59' E 005°43'0 0.0
2019-Sep-14 11:28N 58°59' E 005°43'0 0.0
2019-Sep-14 10:58N 58°59' E 005°43'0 0.0
2019-Sep-14 10:28N 58°59' E 005°43'0 0.0
2019-Sep-14 09:58N 58°59' E 005°43'0 0.0
2019-Sep-14 09:27N 58°59' E 005°43'0 0.0
2019-Sep-14 08:58N 58°59' E 005°43'0 0.0
2019-Sep-14 08:28N 58°59' E 005°43'0 0.0
2019-Sep-14 07:58N 58°59' E 005°43'0 0.0
2019-Sep-14 07:28N 58°59' E 005°43'0 0.0
2019-Sep-14 06:58N 58°59' E 005°43'0 0.0
2019-Sep-14 06:28N 58°59' E 005°43'0 0.0
2019-Sep-14 05:58N 58°59' E 005°43'0 0.0
2019-Sep-14 05:28N 58°59' E 005°43'0 0.0
2019-Sep-14 04:58N 58°59' E 005°43'0 0.0
2019-Sep-14 04:28N 58°59' E 005°43'0 0.0
2019-Sep-14 03:58N 58°59' E 005°43'0 0.0
2019-Sep-14 03:28N 58°59' E 005°43'0 0.0
2019-Sep-14 02:58N 58°59' E 005°43'0 0.0
2019-Sep-14 02:28N 58°59' E 005°43'0 0.0
2019-Sep-14 01:58N 58°59' E 005°43'0 0.0
2019-Sep-14 01:28N 58°59' E 005°43'0 0.0
2019-Sep-14 00:58N 58°59' E 005°43'0 0.0
2019-Sep-14 00:28N 58°59' E 005°43'0 0.0
2019-Sep-13 23:58N 58°59' E 005°43'0 0.0
2019-Sep-13 23:28N 58°59' E 005°43'0 0.0
2019-Sep-13 22:58N 58°59' E 005°43'0 0.0
2019-Sep-13 22:28N 58°59' E 005°43'0 0.0
2019-Sep-13 21:58N 58°59' E 005°43'0 0.0
2019-Sep-13 21:28N 58°59' E 005°43'0 0.0
2019-Sep-13 20:58N 58°59' E 005°43'0 0.0
2019-Sep-13 20:28N 58°59' E 005°43'0 0.0
2019-Sep-13 19:58N 58°59' E 005°43'0 0.0
2019-Sep-13 19:25N 58°59' E 005°43'0 0.0
2019-Sep-13 18:58N 58°59' E 005°43'0 0.0
2019-Sep-13 18:28N 58°59' E 005°43'0 0.0
2019-Sep-13 17:58N 58°59' E 005°43'0 0.0
2019-Sep-13 17:30N 58°59' E 005°43'0 0.0
2019-Sep-13 17:00N 58°59' E 005°43'0 0.0
2019-Sep-13 16:30N 58°59' E 005°43'0 0.0
2019-Sep-13 16:00N 58°59' E 005°43'0 0.0
2019-Sep-13 15:30N 58°59' E 005°43'0 0.0
2019-Sep-13 15:00N 58°59' E 005°43'0 0.0
2019-Sep-13 14:30N 58°59' E 005°43'0 0.0
2019-Sep-13 14:00N 58°59' E 005°43'0 0.0
2019-Sep-13 13:30N 58°59' E 005°43'0 0.0
2019-Sep-13 13:00N 58°59' E 005°43'0 0.0
2019-Sep-13 12:30N 58°59' E 005°43'0 0.0
2019-Sep-13 12:00N 58°59' E 005°43'2 3.9
2019-Sep-13 11:31N 59°00' E 005°41'3 7.0
2019-Sep-13 11:00N 59°02' E 005°36'3 5.4
2019-Sep-13 10:30N 59°04' E 005°33'4 8.0
2019-Sep-13 10:00N 59°08' E 005°33'2 4.6
2019-Sep-13 09:30N 59°10' E 005°35'4 7.5
2019-Sep-13 09:00N 59°08' E 005°29'4 7.7
2019-Sep-13 08:30N 59°05' E 005°24'510.3
2019-Sep-13 08:00N 59°03' E 005°15'510.2
2019-Sep-13 07:30N 59°03' E 005°05'510.9
2019-Sep-13 07:00N 59°05' E 004°55'612.4
2019-Sep-13 06:30N 59°09' E 004°45'612.3
2019-Sep-13 06:00N 59°12' E 004°35'612.2
2019-Sep-13 05:30N 59°15' E 004°25'612.5
2019-Sep-13 05:00N 59°18' E 004°14'612.7
2019-Sep-13 04:30N 59°22' E 004°03'613.0
2019-Sep-13 04:00N 59°28' E 004°02'713.6
2019-Sep-13 03:30N 59°35' E 004°03'713.3
2019-Sep-13 03:00N 59°41' E 004°03'713.3
2019-Sep-13 02:30N 59°48' E 004°03'1313.4
2019-Sep-13 01:30N 60°01' E 004°03'714.5
2019-Sep-13 01:00N 60°09' E 004°02'714.2
2019-Sep-13 00:30N 60°16' E 004°01'714.4
2019-Sep-13 00:00N 60°23' E 003°58'714.6
2019-Sep-12 23:30N 60°29' E 003°50'714.3
2019-Sep-12 23:00N 60°35' E 003°41'714.4
2019-Sep-12 22:30N 60°40' E 003°31'714.7
2019-Sep-12 22:00N 60°46' E 003°23'714.9
2019-Sep-12 21:30N 60°52' E 003°15'715.2
2019-Sep-12 21:00N 60°59' E 003°07'815.1
2019-Sep-12 20:30N 61°05' E 002°58'713.5
2019-Sep-12 19:59N 61°11' E 003°04'713.7
2019-Sep-12 19:30N 61°17' E 003°13'713.6
2019-Sep-12 19:00N 61°22' E 003°22'713.7
2019-Sep-12 18:30N 61°27' E 003°31'713.1
2019-Sep-12 18:00N 61°32' E 003°40'612.9
2019-Sep-12 17:30N 61°37' E 003°49'713.0
2019-Sep-12 17:00N 61°42' E 003°57'611.4
2019-Sep-12 16:30N 61°47' E 004°02'612.7
2019-Sep-12 16:00N 61°54' E 004°02'713.7
2019-Sep-12 15:30N 62°01' E 004°03'713.3
2019-Sep-12 15:00N 62°06' E 004°12'612.7
2019-Sep-12 14:30N 62°11' E 004°20'713.6
2019-Sep-12 14:00N 62°16' E 004°30'713.3
2019-Sep-12 13:30N 62°20' E 004°40'713.4
2019-Sep-12 13:00N 62°26' E 004°49'612.7
2019-Sep-12 12:29N 62°31' E 004°58'612.5
2019-Sep-12 12:00N 62°35' E 005°06'612.1
2019-Sep-12 11:30N 62°40' E 005°16'612.1
2019-Sep-12 11:00N 62°43' E 005°27'611.9
2019-Sep-12 10:30N 62°46' E 005°37'713.0
2019-Sep-12 10:00N 62°50' E 005°50'714.0
2019-Sep-12 09:30N 62°53' E 006°03'612.1
2019-Sep-12 09:00N 62°57' E 006°14'612.8
2019-Sep-12 08:30N 62°60' E 006°26'713.3
2019-Sep-12 08:00N 63°04' E 006°38'713.5
2019-Sep-12 07:30N 63°07' E 006°51'714.0
2019-Sep-12 07:00N 63°10' E 007°05'713.6
2019-Sep-12 06:30N 63°13' E 007°19'612.7
2019-Sep-12 06:00N 63°16' E 007°31'611.4
2019-Sep-12 05:30N 63°14' E 007°43'3 5.7
2019-Sep-12 05:00N 63°13' E 007°49'4 7.4
2019-Sep-12 04:30N 63°10' E 007°44'2 4.9
2019-Sep-12 04:00N 63°12' E 007°48'2 4.8
2019-Sep-12 03:30N 63°14' E 007°44'510.0
2019-Sep-12 03:00N 63°16' E 007°35'611.0
2019-Sep-12 02:30N 63°22' E 007°32'612.5
2019-Sep-12 02:00N 63°28' E 007°29'611.5
2019-Sep-12 01:29N 63°33' E 007°33'511.3
2019-Sep-12 01:00N 63°38' E 007°39'611.9
2019-Sep-12 00:30N 63°44' E 007°44'611.0
2019-Sep-12 00:00N 63°48' E 007°51'510.8
2019-Sep-11 23:30N 63°53' E 007°57'510.7
2019-Sep-11 23:00N 63°58' E 008°03'611.4
2019-Sep-11 22:30N 64°03' E 008°09'611.2
2019-Sep-11 22:00N 64°08' E 008°15'611.5
2019-Sep-11 21:30N 64°13' E 008°21'612.1
2019-Sep-11 21:00N 64°18' E 008°28'612.4
2019-Sep-11 20:30N 64°23' E 008°35'612.1
2019-Sep-11 20:00N 64°29' E 008°42'612.0
2019-Sep-11 19:29N 64°34' E 008°49'611.8
2019-Sep-11 19:00N 64°39' E 008°55'612.2
2019-Sep-11 18:30N 64°45' E 009°00'612.3
2019-Sep-11 18:00N 64°50' E 009°07'611.7
2019-Sep-11 17:30N 64°55' E 009°14'610.9
2019-Sep-11 17:00N 65°00' E 009°20'511.2
2019-Sep-11 16:30N 65°05' E 009°26'611.4
2019-Sep-11 16:00N 65°10' E 009°32'611.5
2019-Sep-11 15:30N 65°15' E 009°39'611.6
2019-Sep-11 15:00N 65°20' E 009°46'611.4
2019-Sep-11 14:29N 65°25' E 009°53'611.5
2019-Sep-11 14:00N 65°30' E 009°60'611.4
2019-Sep-11 13:31N 65°35' E 010°07'611.4
2019-Sep-11 13:00N 65°40' E 010°13'611.6
2019-Sep-11 12:30N 65°45' E 010°19'611.5
2019-Sep-11 12:00N 65°51' E 010°25'611.4
2019-Sep-11 11:30N 65°56' E 010°31'611.4
2019-Sep-11 11:00N 66°01' E 010°36'611.3
2019-Sep-11 10:30N 66°06' E 010°43'611.1
2019-Sep-11 10:00N 66°11' E 010°46'611.1
2019-Sep-11 09:29N 66°17' E 010°49'511.2
2019-Sep-11 09:00N 66°21' E 010°59'611.9
2019-Sep-11 08:30N 66°25' E 011°08'511.0
2019-Sep-11 08:01N 66°30' E 011°16'510.9
2019-Sep-11 07:30N 66°34' E 011°23'611.0
2019-Sep-11 07:00N 66°39' E 011°29'611.1
2019-Sep-11 06:30N 66°44' E 011°36'611.1
2019-Sep-11 06:00N 66°49' E 011°43'610.8
2019-Sep-11 05:30N 66°54' E 011°51'510.6
2019-Sep-11 05:00N 66°57' E 011°60'611.0
2019-Sep-11 04:30N 67°02' E 012°09'611.1
2019-Sep-11 04:00N 67°06' E 012°19'138.0
2019-Sep-11 04:00N 67°06' E 012°18'510.9 150 / 251002.110.8 14.711.511.0
2019-Sep-11 03:30N 67°10' E 012°28'510.8
2019-Sep-11 03:00N 67°14' E 012°37'510.8
2019-Sep-11 02:30N 67°18' E 012°46'510.8
2019-Sep-11 02:00N 67°22' E 012°55'  

Dump ship's entire track history